createdAt,value
2018-08-22T00:00:54.730Z,16.63
2018-08-22T00:03:24.459Z,14.03
2018-08-22T00:05:54.309Z,14.50
2018-08-22T00:08:29.189Z,13.70
2018-08-22T00:10:58.828Z,16.03
2018-08-22T00:13:28.536Z,17.17
2018-08-22T00:15:58.360Z,18.10
2018-08-22T00:18:28.203Z,16.53
2018-08-22T00:20:58.020Z,15.30
2018-08-22T00:23:27.714Z,14.87
2018-08-22T00:25:57.493Z,16.63
2018-08-22T00:28:27.088Z,15.87
2018-08-22T00:30:56.730Z,15.43
2018-08-22T00:33:26.273Z,15.40
2018-08-22T00:35:55.885Z,21.50
2018-08-22T00:38:25.598Z,20.37
2018-08-22T00:40:55.670Z,19.07
2018-08-22T00:43:25.330Z,20.00
2018-08-22T00:45:54.941Z,20.17
2018-08-22T00:48:24.574Z,19.67
2018-08-22T00:50:54.348Z,19.63
2018-08-22T00:53:23.977Z,19.33
2018-08-22T00:55:53.605Z,19.57
2018-08-22T00:58:23.281Z,18.73
2018-08-22T01:00:53.085Z,17.87
2018-08-22T01:03:22.665Z,20.73
2018-08-22T01:05:52.302Z,21.90
2018-08-22T01:08:22.085Z,19.67
2018-08-22T01:10:51.813Z,22.90
2018-08-22T01:13:21.580Z,18.37
2018-08-22T01:15:51.177Z,19.80
2018-08-22T01:18:20.879Z,21.17
2018-08-22T01:20:50.399Z,19.60
2018-08-22T01:23:20.061Z,23.27
2018-08-22T01:25:49.828Z,19.43
2018-08-22T01:28:19.409Z,20.60
2018-08-22T01:30:49.083Z,21.37
2018-08-22T01:33:18.759Z,20.73
2018-08-22T01:35:48.308Z,19.77
2018-08-22T01:38:17.983Z,20.30
2018-08-22T01:40:47.598Z,20.90
2018-08-22T01:43:17.482Z,22.77
2018-08-22T01:45:47.110Z,20.57
2018-08-22T01:49:19.428Z,20.50
2018-08-22T01:51:49.203Z,17.13
2018-08-22T01:54:18.821Z,24.60
2018-08-22T01:56:48.456Z,21.30
2018-08-22T01:59:18.255Z,21.40
2018-08-22T02:01:47.871Z,22.63
2018-08-22T02:04:17.569Z,22.53
2018-08-22T02:06:47.245Z,19.53
2018-08-22T02:09:16.901Z,21.97
2018-08-22T02:11:46.938Z,22.07
2018-08-22T02:14:16.676Z,21.80
2018-08-22T02:16:46.428Z,22.50
2018-08-22T02:19:16.035Z,18.90
2018-08-22T02:21:45.788Z,24.83
2018-08-22T02:24:15.364Z,21.93
2018-08-22T02:26:45.085Z,23.10
2018-08-22T02:29:14.831Z,21.27
2018-08-22T02:31:44.624Z,19.83
2018-08-22T02:34:14.259Z,22.50
2018-08-22T02:36:44.006Z,22.13
2018-08-22T02:39:13.711Z,23.93
2018-08-22T02:41:43.326Z,23.97
2018-08-22T02:44:13.001Z,25.27
2018-08-22T02:46:42.764Z,27.47
2018-08-22T02:49:15.318Z,26.37
2018-08-22T02:51:44.966Z,24.73
2018-08-22T02:54:14.762Z,22.57
2018-08-22T02:56:44.418Z,28.00
2018-08-22T02:59:14.286Z,30.87
2018-08-22T03:01:43.907Z,26.73
2018-08-22T03:04:13.573Z,26.93
2018-08-22T03:06:43.368Z,27.27
2018-08-22T03:09:13.026Z,23.03
2018-08-22T03:11:42.774Z,25.20
2018-08-22T03:14:12.417Z,27.37
2018-08-22T03:16:42.053Z,28.53
2018-08-22T03:19:11.834Z,29.37
2018-08-22T03:21:41.555Z,26.53
2018-08-22T03:24:11.189Z,26.43
2018-08-22T03:26:41.039Z,23.63
2018-08-22T03:29:10.655Z,25.67
2018-08-22T03:31:40.305Z,27.67
2018-08-22T03:34:09.986Z,28.03
2018-08-22T03:36:39.697Z,26.53
2018-08-22T03:39:10.061Z,30.47
2018-08-22T03:41:39.851Z,30.13
2018-08-22T03:44:09.547Z,27.37
2018-08-22T03:46:39.293Z,27.37
2018-08-22T03:49:09.201Z,23.73
2018-08-22T03:51:38.859Z,25.17
2018-08-22T03:54:08.616Z,25.57
2018-08-22T03:56:38.248Z,28.40
2018-08-22T03:59:07.907Z,28.17
2018-08-22T04:01:37.715Z,24.33
2018-08-22T04:04:07.439Z,24.57
2018-08-22T04:06:37.032Z,24.27
2018-08-22T04:09:08.143Z,22.37
2018-08-22T04:11:37.886Z,24.97
2018-08-22T04:14:07.734Z,20.90
2018-08-22T04:16:37.450Z,23.77
2018-08-22T04:19:07.076Z,28.93
2018-08-22T04:21:36.762Z,30.10
2018-08-22T04:24:06.374Z,24.07
2018-08-22T04:26:36.104Z,28.20
2018-08-22T04:29:06.076Z,26.90
2018-08-22T04:31:35.786Z,25.10
2018-08-22T04:34:05.389Z,22.67
2018-08-22T04:36:35.038Z,23.70
2018-08-22T04:39:06.102Z,25.17
2018-08-22T04:41:35.788Z,26.47
2018-08-22T04:44:05.546Z,28.27
2018-08-22T04:46:35.284Z,27.00
2018-08-22T04:49:04.996Z,24.13
2018-08-22T04:51:34.679Z,24.67
2018-08-22T04:54:04.288Z,27.03
2018-08-22T04:56:34.449Z,27.23
2018-08-22T04:59:04.224Z,25.87
2018-08-22T05:01:34.658Z,24.03
2018-08-22T05:04:04.323Z,24.20
2018-08-22T05:06:33.998Z,24.40
2018-08-22T05:09:04.631Z,24.63
2018-08-22T05:11:34.208Z,23.23
2018-08-22T05:14:04.153Z,28.13
2018-08-22T05:16:33.971Z,25.90
2018-08-22T05:19:03.735Z,22.33
2018-08-22T05:21:33.478Z,22.93
2018-08-22T05:24:03.268Z,25.70
2018-08-22T05:26:33.058Z,26.83
2018-08-22T05:29:02.735Z,27.87
2018-08-22T05:31:32.466Z,26.33
2018-08-22T05:34:02.308Z,28.57
2018-08-22T05:36:32.027Z,28.47
2018-08-22T05:39:01.755Z,28.87
2018-08-22T05:41:31.577Z,24.80
2018-08-22T05:44:01.184Z,27.50
2018-08-22T05:46:31.020Z,30.37
2018-08-22T05:49:00.614Z,30.33
2018-08-22T05:51:30.304Z,34.63
2018-08-22T05:54:00.208Z,31.23
2018-08-22T05:56:29.949Z,33.33
2018-08-22T05:58:59.505Z,32.67
2018-08-22T06:01:29.118Z,35.40
2018-08-22T06:03:58.923Z,33.23
2018-08-22T06:06:28.553Z,36.97
2018-08-22T06:08:58.296Z,33.03
2018-08-22T06:11:28.166Z,34.23
2018-08-22T06:13:57.938Z,32.07
2018-08-22T06:16:27.678Z,31.93
2018-08-22T06:18:57.378Z,34.13
2018-08-22T06:21:27.054Z,29.60
2018-08-22T06:23:56.838Z,31.60
2018-08-22T06:26:26.660Z,31.03
2018-08-22T06:28:56.456Z,32.47
2018-08-22T06:31:26.079Z,33.47
2018-08-22T06:33:55.792Z,30.17
2018-08-22T06:36:25.623Z,32.17
2018-08-22T06:38:55.188Z,30.30
2018-08-22T06:41:24.811Z,33.73
2018-08-22T06:43:54.481Z,33.90
2018-08-22T06:46:24.192Z,34.33
2018-08-22T06:48:54.027Z,32.40
2018-08-22T06:51:23.713Z,32.87
2018-08-22T06:53:53.346Z,31.80
2018-08-22T06:56:22.961Z,34.40
2018-08-22T06:58:52.878Z,33.30
2018-08-22T07:01:22.619Z,33.00
2018-08-22T07:03:52.388Z,35.67
2018-08-22T07:06:22.029Z,33.03
2018-08-22T07:08:51.743Z,33.97
2018-08-22T07:11:21.389Z,32.63
2018-08-22T07:13:51.167Z,32.37
2018-08-22T07:16:20.862Z,28.73
2018-08-22T07:18:50.738Z,30.70
2018-08-22T07:21:20.425Z,30.70
2018-08-22T07:23:50.005Z,33.20
2018-08-22T07:26:19.779Z,32.07
2018-08-22T07:28:49.409Z,32.83
2018-08-22T07:31:19.026Z,32.70
2018-08-22T07:33:48.762Z,33.20
2018-08-22T07:36:18.574Z,34.03
2018-08-22T07:38:48.539Z,30.70
2018-08-22T07:41:18.230Z,28.40
2018-08-22T07:43:47.938Z,29.30
2018-08-22T07:46:17.748Z,26.70
2018-08-22T07:48:47.748Z,28.07
2018-08-22T07:51:17.632Z,24.17
2018-08-22T07:53:47.560Z,26.63
2018-08-22T07:56:17.233Z,25.90
2018-08-22T07:58:47.163Z,23.17
2018-08-22T08:01:16.961Z,21.27
2018-08-22T08:03:46.714Z,20.53
2018-08-22T08:06:16.570Z,20.60
2018-08-22T08:08:46.287Z,22.83
2018-08-22T08:11:16.150Z,21.80
2018-08-22T08:13:45.922Z,21.13
2018-08-22T08:16:15.663Z,19.67
2018-08-22T08:18:45.467Z,20.23
2018-08-22T08:21:15.203Z,20.40
2018-08-22T08:23:45.038Z,18.63
2018-08-22T08:26:14.838Z,20.00
2018-08-22T08:28:44.588Z,20.80
2018-08-22T08:31:14.177Z,19.70
2018-08-22T08:33:43.965Z,18.67
2018-08-22T08:36:13.901Z,18.17
2018-08-22T08:38:43.763Z,19.87
2018-08-22T08:41:13.821Z,17.33
2018-08-22T08:43:43.976Z,18.63
2018-08-22T08:46:13.663Z,18.07
2018-08-22T08:48:43.424Z,20.90
2018-08-22T08:51:13.266Z,21.00
2018-08-22T08:53:42.943Z,21.20
2018-08-22T08:56:12.764Z,22.17
2018-08-22T08:58:42.592Z,22.67
2018-08-22T09:01:12.314Z,21.13
2018-08-22T09:03:42.066Z,21.77
2018-08-22T09:06:11.904Z,22.20
2018-08-22T09:08:41.930Z,23.80
2018-08-22T09:11:11.835Z,21.80
2018-08-22T09:13:46.628Z,21.03
2018-08-22T09:16:16.890Z,21.47
2018-08-22T09:18:46.546Z,14.93
2018-08-22T09:21:16.254Z,15.90
2018-08-22T09:23:45.926Z,17.57
2018-08-22T09:26:15.682Z,17.50
2018-08-22T09:28:45.574Z,19.60
2018-08-22T09:31:15.298Z,21.33
2018-08-22T09:33:45.045Z,22.23
2018-08-22T09:36:14.741Z,22.17
2018-08-22T09:38:44.494Z,20.27
2018-08-22T09:41:14.380Z,21.80
2018-08-22T09:43:44.175Z,19.13
2018-08-22T09:46:13.797Z,21.93
2018-08-22T09:48:43.683Z,18.60
2018-08-22T09:51:13.496Z,19.13
2018-08-22T09:53:43.167Z,16.83
2018-08-22T09:56:13.563Z,17.90
2018-08-22T09:58:43.417Z,17.60
2018-08-22T10:01:18.526Z,20.37
2018-08-22T10:03:59.264Z,20.97
2018-08-22T10:06:37.908Z,20.80
2018-08-22T10:09:12.602Z,23.43
2018-08-22T10:11:42.382Z,27.23
2018-08-22T10:14:12.462Z,26.50
2018-08-22T10:16:42.421Z,27.90
2018-08-22T10:19:12.175Z,28.87
2018-08-22T10:21:41.955Z,27.03
2018-08-22T10:24:11.628Z,24.40
2018-08-22T10:26:41.482Z,27.63
2018-08-22T10:29:11.172Z,31.63
2018-08-22T10:31:40.862Z,33.77
2018-08-22T10:34:10.662Z,25.87
2018-08-22T10:36:40.479Z,24.90
2018-08-22T10:39:10.792Z,27.80
2018-08-22T10:41:40.786Z,31.50
2018-08-22T10:44:10.651Z,34.20
2018-08-22T10:46:40.465Z,33.33
2018-08-22T10:49:10.353Z,25.90
2018-08-22T10:51:40.264Z,36.03
2018-08-22T10:54:10.152Z,30.83
2018-08-22T10:56:39.913Z,28.30
2018-08-22T10:59:09.657Z,33.63
2018-08-22T11:01:39.434Z,29.97
2018-08-22T11:04:09.241Z,31.70
2018-08-22T11:06:39.020Z,31.20
2018-08-22T11:09:10.535Z,25.30
2018-08-22T11:11:40.962Z,35.83
2018-08-22T11:14:10.750Z,36.60
2018-08-22T11:16:40.506Z,36.50
2018-08-22T11:19:10.265Z,34.80
2018-08-22T11:21:56.527Z,32.93
2018-08-22T11:24:42.842Z,35.70
2018-08-22T11:27:29.091Z,36.13
2018-08-22T11:30:15.462Z,29.00
2018-08-22T11:33:01.841Z,23.67
2018-08-22T11:35:29.632Z,24.17
2018-08-22T11:37:59.416Z,27.20
2018-08-22T11:40:29.236Z,32.63
2018-08-22T11:42:58.938Z,34.90
2018-08-22T11:45:28.656Z,35.17
2018-08-22T11:47:58.472Z,35.33
2018-08-22T11:50:28.386Z,33.93
2018-08-22T11:52:58.210Z,38.33
2018-08-22T11:55:27.928Z,35.43
2018-08-22T11:57:57.818Z,36.90
2018-08-22T12:00:27.550Z,35.23
2018-08-22T12:02:57.237Z,30.50
2018-08-22T12:05:26.956Z,37.80
2018-08-22T12:07:56.704Z,40.17
2018-08-22T12:10:30.698Z,34.43
2018-08-22T12:13:03.342Z,37.93
2018-08-22T12:15:34.276Z,36.23
2018-08-22T12:18:04.287Z,30.27
2018-08-22T12:20:34.241Z,32.03
2018-08-22T12:23:04.405Z,28.77
2018-08-22T12:25:34.265Z,30.30
2018-08-22T12:28:04.283Z,31.43
2018-08-22T12:30:34.035Z,31.10
2018-08-22T12:33:04.179Z,28.40
2018-08-22T12:35:34.049Z,29.83
2018-08-22T12:38:03.935Z,31.87
2018-08-22T12:40:33.925Z,29.47
2018-08-22T12:43:03.819Z,30.07
2018-08-22T12:45:33.646Z,27.97
2018-08-22T12:48:03.382Z,29.93
2018-08-22T12:50:33.052Z,27.20
2018-08-22T12:53:02.707Z,23.93
2018-08-22T12:55:32.578Z,23.37
2018-08-22T12:58:02.450Z,24.03
2018-08-22T13:00:32.183Z,26.13
2018-08-22T13:03:01.943Z,25.07
2018-08-22T13:05:31.698Z,28.03
2018-08-22T13:08:01.432Z,24.33
2018-08-22T13:10:31.146Z,23.77
2018-08-22T13:13:00.906Z,26.90
2018-08-22T13:15:30.723Z,25.03
2018-08-22T13:18:00.498Z,24.27
2018-08-22T13:20:30.226Z,26.03
2018-08-22T13:22:59.939Z,25.83
2018-08-22T13:25:29.638Z,26.33
2018-08-22T13:27:59.425Z,26.90
2018-08-22T13:30:29.125Z,24.37
2018-08-22T13:32:58.988Z,24.83
2018-08-22T13:35:28.907Z,25.97
2018-08-22T13:37:58.724Z,27.63
2018-08-22T13:40:28.419Z,25.10
2018-08-22T13:42:58.251Z,22.97
2018-08-22T13:45:28.077Z,27.30
2018-08-22T13:47:57.842Z,30.27
2018-08-22T13:50:27.635Z,29.50
2018-08-22T13:52:57.554Z,24.80
2018-08-22T13:55:27.443Z,25.33
2018-08-22T13:57:57.351Z,25.47
2018-08-22T14:00:27.165Z,25.93
2018-08-22T14:02:56.972Z,21.87
2018-08-22T14:05:26.807Z,23.77
2018-08-22T14:07:56.502Z,24.93
2018-08-22T14:10:26.283Z,23.20
2018-08-22T14:12:55.917Z,20.70
2018-08-22T14:15:25.718Z,19.90
2018-08-22T14:17:55.354Z,19.43
2018-08-22T14:20:24.972Z,18.57
2018-08-22T14:22:54.698Z,16.77
2018-08-22T14:25:24.511Z,15.23
2018-08-22T14:27:54.312Z,18.33
2018-08-22T14:30:24.144Z,16.10
2018-08-22T14:32:54.034Z,16.30
2018-08-22T14:35:23.906Z,17.23
2018-08-22T14:37:53.514Z,16.73
2018-08-22T14:40:23.208Z,15.17
2018-08-22T14:42:52.973Z,13.57
2018-08-22T14:45:22.711Z,14.47
2018-08-22T14:47:52.504Z,13.07
2018-08-22T14:50:22.280Z,13.10
2018-08-22T14:52:52.077Z,15.40
2018-08-22T14:55:21.992Z,14.87
2018-08-22T14:57:51.747Z,13.47
2018-08-22T15:00:21.532Z,13.90
2018-08-22T15:02:51.552Z,13.57
2018-08-22T15:05:21.216Z,13.10
2018-08-22T15:07:51.245Z,11.63
2018-08-22T15:10:21.057Z,13.93
2018-08-22T15:12:50.794Z,15.70
2018-08-22T15:15:20.483Z,13.43
2018-08-22T15:17:50.283Z,14.47
2018-08-22T15:20:20.174Z,13.80
2018-08-22T15:22:49.910Z,14.87
2018-08-22T15:25:19.708Z,16.07
2018-08-22T15:27:49.644Z,15.17
2018-08-22T15:30:19.356Z,15.60
2018-08-22T15:32:49.212Z,14.53
2018-08-22T15:35:19.276Z,13.47
2018-08-22T15:37:49.210Z,16.03
2018-08-22T15:40:18.880Z,15.23
2018-08-22T15:42:48.818Z,16.27
2018-08-22T15:45:18.453Z,17.47
2018-08-22T15:47:48.160Z,15.13
2018-08-22T15:50:17.880Z,16.53
2018-08-22T15:52:47.685Z,16.67
2018-08-22T15:55:18.818Z,16.77
2018-08-22T15:57:58.219Z,17.90
2018-08-22T16:00:42.359Z,17.70
2018-08-22T16:03:12.813Z,17.50
2018-08-22T16:05:44.068Z,17.50
2018-08-22T16:08:15.941Z,17.23
2018-08-22T16:10:45.828Z,18.23
2018-08-22T16:13:20.820Z,19.60
2018-08-22T16:15:52.088Z,15.60
2018-08-22T16:18:22.075Z,15.83
2018-08-22T16:21:02.318Z,19.27
2018-08-22T16:23:34.065Z,18.00
2018-08-22T16:26:04.880Z,19.37
2018-08-22T16:28:55.203Z,21.83
2018-08-22T16:31:29.864Z,25.93
2018-08-22T16:33:59.680Z,22.30
2018-08-22T16:36:30.154Z,18.47
2018-08-22T16:39:00.982Z,23.10
2018-08-22T16:41:30.925Z,29.47
2018-08-22T16:44:00.730Z,32.70
2018-08-22T16:46:30.548Z,26.87
2018-08-22T16:49:00.413Z,21.10
2018-08-22T16:51:30.270Z,26.57
2018-08-22T16:54:06.508Z,32.40
2018-08-22T16:56:36.394Z,26.73
2018-08-22T16:59:13.235Z,26.93
2018-08-22T17:01:47.683Z,24.20
2018-08-22T17:04:17.348Z,31.40
2018-08-22T17:06:47.384Z,31.77
2018-08-22T17:09:17.165Z,27.07
2018-08-22T17:11:46.903Z,27.53
2018-08-22T17:14:16.611Z,30.33
2018-08-22T17:16:46.378Z,34.03
2018-08-22T17:19:16.150Z,34.27
2018-08-22T17:21:45.921Z,32.10
2018-08-22T17:24:15.669Z,29.97
2018-08-22T17:26:45.413Z,31.50
2018-08-22T17:29:15.379Z,30.50
2018-08-22T17:31:50.204Z,30.13
2018-08-22T17:34:19.942Z,29.90
2018-08-22T17:37:07.229Z,32.77
2018-08-22T17:39:36.955Z,31.03
2018-08-22T17:42:06.776Z,34.30
2018-08-22T17:44:36.506Z,33.63
2018-08-22T17:47:06.240Z,32.23
2018-08-22T17:49:35.986Z,29.87
2018-08-22T17:52:09.167Z,28.87
2018-08-22T17:54:38.974Z,30.20
2018-08-22T17:57:20.438Z,30.23
2018-08-22T17:59:50.222Z,27.37
2018-08-22T18:02:19.982Z,29.20
2018-08-22T18:05:07.851Z,28.27
2018-08-22T18:07:37.644Z,28.40
2018-08-22T18:10:07.305Z,28.43
2018-08-22T18:12:36.994Z,24.27
2018-08-22T18:15:06.937Z,26.03
2018-08-22T18:17:36.810Z,23.40
2018-08-22T18:20:06.690Z,27.50
2018-08-22T18:22:38.073Z,25.43
2018-08-22T18:25:08.191Z,26.20
2018-08-22T18:27:38.167Z,25.37
2018-08-22T18:30:12.180Z,24.83
2018-08-22T18:32:42.058Z,23.80
2018-08-22T18:35:12.515Z,23.87
2018-08-22T18:37:42.752Z,22.23
2018-08-22T18:40:21.375Z,22.40
2018-08-22T18:42:57.647Z,21.97
2018-08-22T18:45:27.932Z,22.90
2018-08-22T18:47:57.863Z,22.70
2018-08-22T18:50:27.556Z,28.20
2018-08-22T18:52:58.767Z,21.63
2018-08-22T18:55:29.731Z,21.60
2018-08-22T18:58:01.007Z,22.27
2018-08-22T19:00:31.074Z,20.27
2018-08-22T19:03:00.705Z,23.33
2018-08-22T19:05:32.737Z,21.17
2018-08-22T19:08:15.313Z,23.60
2018-08-22T19:10:47.740Z,21.60
2018-08-22T19:13:19.638Z,22.53
2018-08-22T19:15:53.796Z,22.07
2018-08-22T19:18:23.635Z,21.90
2018-08-22T19:20:56.198Z,20.80
2018-08-22T19:23:26.023Z,22.53
2018-08-22T19:25:56.444Z,23.17
2018-08-22T19:28:26.279Z,21.33
2018-08-22T19:30:55.877Z,20.83
2018-08-22T19:33:26.749Z,24.23
2018-08-22T19:35:56.791Z,26.07
2018-08-22T19:38:27.660Z,24.73
2018-08-22T19:40:58.586Z,22.20
2018-08-22T19:43:28.473Z,24.87
2018-08-22T19:45:58.178Z,25.93
2018-08-22T19:48:27.919Z,19.50
2018-08-22T19:50:57.774Z,28.00
2018-08-22T19:53:27.411Z,27.43
2018-08-22T19:55:57.111Z,29.17
2018-08-22T19:58:32.102Z,24.37
2018-08-22T20:01:01.810Z,26.73
2018-08-22T20:03:38.015Z,22.43
2018-08-22T20:06:07.604Z,27.57
2018-08-22T20:08:38.792Z,28.13
2018-08-22T20:11:08.968Z,28.37
2018-08-22T20:13:50.454Z,31.03
2018-08-22T20:16:21.245Z,27.77
2018-08-22T20:18:53.281Z,25.57
2018-08-22T20:21:28.085Z,30.50
2018-08-22T20:23:57.703Z,33.60
2018-08-22T20:26:28.132Z,32.20
2018-08-22T20:28:59.083Z,26.63
2018-08-22T20:31:28.895Z,29.00
2018-08-22T20:34:08.000Z,28.77
2018-08-22T20:36:37.763Z,27.77
2018-08-22T20:39:11.186Z,28.47
2018-08-22T20:41:41.465Z,30.90
2018-08-22T20:44:19.040Z,30.27
2018-08-22T20:46:49.766Z,27.07
2018-08-22T20:49:21.088Z,30.60
2018-08-22T20:51:50.813Z,25.53
2018-08-22T20:54:23.429Z,31.63
2018-08-22T20:56:58.378Z,31.57
2018-08-22T20:59:28.012Z,30.87
2018-08-22T21:02:04.885Z,26.33
2018-08-22T21:04:35.550Z,29.40
2018-08-22T21:07:05.744Z,28.80
2018-08-22T21:09:35.423Z,30.40
2018-08-22T21:12:05.125Z,34.27
2018-08-22T21:14:34.896Z,31.17
2018-08-22T21:17:04.913Z,31.33
2018-08-22T21:19:34.594Z,34.07
2018-08-22T21:22:09.968Z,32.27
2018-08-22T21:24:39.680Z,27.07
2018-08-22T21:27:09.250Z,27.83
2018-08-22T21:29:38.998Z,26.00
2018-08-22T21:32:08.838Z,28.57
2018-08-22T21:34:38.552Z,27.93
2018-08-22T21:37:23.293Z,29.47
2018-08-22T21:39:52.990Z,28.53
2018-08-22T21:42:26.891Z,29.30
2018-08-22T21:44:57.468Z,27.47
2018-08-22T21:47:27.454Z,23.83
2018-08-22T21:49:57.366Z,25.00
2018-08-22T21:52:29.334Z,24.03
2018-08-22T21:54:59.212Z,23.83
2018-08-22T21:57:29.087Z,24.17
2018-08-22T22:00:09.193Z,25.73
2018-08-22T22:02:43.799Z,27.37
2018-08-22T22:05:13.687Z,25.83
2018-08-22T22:07:43.430Z,23.87
2018-08-22T22:10:13.646Z,30.30
2018-08-22T22:12:43.406Z,29.47
2018-08-22T22:15:18.797Z,30.37
2018-08-22T22:17:48.609Z,32.03
2018-08-22T22:20:18.345Z,33.50
2018-08-22T22:22:47.960Z,30.90
2018-08-22T22:25:17.697Z,30.10
2018-08-22T22:27:47.396Z,30.93
2018-08-22T22:30:17.151Z,34.87
2018-08-22T22:32:47.059Z,36.00
2018-08-22T22:35:24.896Z,37.10
2018-08-22T22:37:59.210Z,34.53
2018-08-22T22:40:30.522Z,34.73
2018-08-22T22:43:00.201Z,34.93
2018-08-22T22:48:37.498Z,26.27
2018-08-22T22:51:07.978Z,30.33
2018-08-22T22:53:37.992Z,34.80
2018-08-22T22:56:07.911Z,28.63
2018-08-22T22:58:38.378Z,32.50
2018-08-22T23:01:08.354Z,28.90
2018-08-22T23:03:38.190Z,27.77
2018-08-22T23:06:07.814Z,31.23
2018-08-22T23:08:37.548Z,34.70
2018-08-22T23:11:08.460Z,32.20
2018-08-22T23:13:39.110Z,30.93
2018-08-22T23:16:09.667Z,31.53
2018-08-22T23:18:39.401Z,35.87
2018-08-22T23:21:08.894Z,34.47
2018-08-22T23:23:39.098Z,35.30
2018-08-22T23:26:15.549Z,32.83
2018-08-22T23:28:45.725Z,36.50
2018-08-22T23:31:18.636Z,36.23
2018-08-22T23:33:48.265Z,31.13
2018-08-22T23:36:17.870Z,36.10
2018-08-22T23:38:47.594Z,32.67
2018-08-22T23:41:17.306Z,31.07
2018-08-22T23:43:52.679Z,30.30
2018-08-22T23:46:22.279Z,32.93
2018-08-22T23:48:59.281Z,34.37
2018-08-22T23:51:29.043Z,34.20
2018-08-22T23:54:00.100Z,35.50
2018-08-22T23:56:30.906Z,31.83
2018-08-22T23:59:00.845Z,34.67
